Time;durP1;ratioP1;P1;durP2;ratioP2;P2;SDS_P1;SDS_P2;PMS_P1;PMS_P2;Temp;Humidity;BMP_temperature;BMP_pressure;BME280_temperature;BME280_humidity;BME280_pressure;Samples;Min_cycle;Max_cycle;Signal;HPM_P1;HPM_P2
2023/03/13 00:03:06;;;;;;;15.27;3.65;;;;;;;10.30;64.47;99621.47;12968127;22;20027;-68
2023/03/13 00:08:07;;;;;;;17.83;3.20;;;;;;;10.23;64.53;99608.97;12971483;22;20024;-67
2023/03/13 00:13:09;;;;;;;21.13;3.30;;;;;;;10.27;64.87;99610.28;12973930;22;20102;-66
2023/03/13 00:18:10;;;;;;;10.43;1.88;;;;;;;10.28;64.92;99593.94;12976755;22;20031;-68
2023/03/13 00:23:12;;;;;;;17.25;2.90;;;;;;;10.37;65.02;99592.00;12969590;22;20019;-67
2023/03/13 00:28:13;;;;;;;15.40;1.85;;;;;;;10.37;65.47;99583.94;12945524;22;20024;-67
2023/03/13 00:33:14;;;;;;;13.38;1.77;;;;;;;10.50;65.21;99580.50;12971737;22;20024;-66
2023/03/13 00:38:16;;;;;;;18.58;2.28;;;;;;;10.49;65.42;99576.19;12955765;22;20035;-66
2023/03/13 00:43:17;;;;;;;16.38;1.83;;;;;;;10.57;65.30;99572.53;12970301;22;20400;-68
2023/03/13 00:48:18;;;;;;;15.95;2.15;;;;;;;10.70;65.09;99556.47;12942426;22;20046;-67
2023/03/13 00:53:20;;;;;;;12.20;1.77;;;;;;;10.74;65.05;99546.16;12980728;22;20059;-66
2023/03/13 00:58:23;;;;;;;11.77;1.30;;;;;;;10.76;64.98;99533.34;12969961;22;20038;-68
2023/03/13 01:03:24;;;;;;;16.42;2.42;;;;;;;10.81;64.95;99510.22;12970003;22;20077;-67
2023/03/13 01:08:27;;;;;;;18.00;1.85;;;;;;;10.86;64.77;99509.63;12970499;22;20027;-67
2023/03/13 01:13:31;;;;;;;13.07;1.73;;;;;;;10.88;65.28;99504.88;12970444;22;20039;-67
2023/03/13 01:18:34;;;;;;;11.23;2.00;;;;;;;10.95;64.96;99502.25;12965755;22;20015;-67
2023/03/13 01:23:36;;;;;;;11.68;1.10;;;;;;;11.06;65.01;99505.19;12971666;22;20027;-67
2023/03/13 01:28:38;;;;;;;10.15;0.93;;;;;;;11.16;65.09;99487.81;12971629;22;20027;-67
2023/03/13 01:33:40;;;;;;;7.75;1.13;;;;;;;11.30;64.55;99476.94;12975990;22;20031;-66
2023/03/13 01:38:42;;;;;;;8.38;1.90;;;;;;;11.26;64.49;99464.09;12971121;22;20081;-67
2023/03/13 01:43:44;;;;;;;13.80;1.65;;;;;;;11.35;64.44;99459.34;12971470;22;20384;-67
2023/03/13 01:49:04;;;;;;;14.88;1.80;;;;;;;11.42;63.98;99438.66;12974456;22;20460;-68
2023/03/13 01:54:10;;;;;;;12.02;1.50;;;;;;;11.44;64.44;99431.22;12969295;22;20050;-66
2023/03/13 01:59:15;;;;;;;12.07;1.98;;;;;;;11.45;63.98;99422.94;12969944;22;20081;-66
2023/03/13 02:04:20;;;;;;;7.50;1.00;;;;;;;11.57;64.18;99416.94;12970201;22;20713;-69
2023/03/13 02:09:25;;;;;;;9.57;1.88;;;;;;;11.44;64.27;99413.22;12970998;22;20031;-65
2023/03/13 02:14:32;;;;;;;13.98;1.95;;;;;;;10.90;66.24;99412.25;12970465;22;20122;-66
2023/03/13 02:19:39;;;;;;;9.70;1.30;;;;;;;10.62;67.56;99409.63;12966172;22;20438;-66
2023/03/13 02:24:55;;;;;;;10.48;2.13;;;;;;;10.42;68.79;99400.66;12977670;22;20433;-67
2023/03/13 02:29:58;;;;;;;13.15;1.88;;;;;;;10.49;68.85;99402.34;12955247;22;20031;-65
2023/03/13 02:35:07;;;;;;;12.80;2.40;;;;;;;10.44;69.26;99388.66;12972002;22;20097;-66
2023/03/13 02:40:11;;;;;;;11.13;2.40;;;;;;;10.44;69.84;99366.34;12972768;22;20027;-66
2023/03/13 02:45:15;;;;;;;10.00;1.98;;;;;;;10.41;70.08;99359.53;12947299;22;20016;-65
2023/03/13 02:50:16;;;;;;;15.27;1.75;;;;;;;10.40;70.67;99360.53;12983639;22;20081;-66
2023/03/13 02:55:26;;;;;;;10.93;2.00;;;;;;;10.34;71.06;99345.22;12974178;22;20023;-66
2023/03/13 03:00:27;;;;;;;9.50;1.30;;;;;;;10.39;71.12;99334.72;12943940;22;20031;-65
2023/03/13 03:05:28;;;;;;;10.98;1.67;;;;;;;10.35;71.28;99325.41;12972599;22;20051;-64
2023/03/13 03:10:30;;;;;;;18.75;1.65;;;;;;;10.28;71.78;99303.03;12947166;22;20097;-65
2023/03/13 03:15:31;;;;;;;8.88;1.02;;;;;;;10.28;72.21;99292.28;12968713;22;20093;-64
2023/03/13 03:20:33;;;;;;;21.40;2.97;;;;;;;10.25;72.20;99285.47;12971784;22;20089;-63
2023/03/13 03:25:34;;;;;;;11.75;1.90;;;;;;;10.29;72.49;99300.13;12971707;22;20020;-65
2023/03/13 03:30:35;;;;;;;8.43;0.90;;;;;;;10.37;72.82;99303.69;12971764;22;20027;-64
2023/03/13 03:35:37;;;;;;;15.23;1.42;;;;;;;10.38;72.69;99297.31;12977365;22;20024;-72
2023/03/13 03:40:38;;;;;;;11.63;1.42;;;;;;;10.37;73.27;99301.00;12975033;22;20087;-71
2023/03/13 03:45:40;;;;;;;16.92;1.30;;;;;;;10.35;73.30;99303.06;12975996;22;20452;-70
2023/03/13 03:50:42;;;;;;;8.75;2.30;;;;;;;10.34;73.68;99309.47;12974934;22;20028;-70
2023/03/13 03:55:44;;;;;;;10.15;1.52;;;;;;;10.23;74.15;99290.19;12974389;22;20081;-72
2023/03/13 04:00:47;;;;;;;7.45;1.27;;;;;;;10.13;74.55;99285.19;12946422;22;20387;-68
2023/03/13 04:05:48;;;;;;;13.23;1.23;;;;;;;10.18;74.60;99283.78;12976426;22;20085;-67
2023/03/13 04:10:50;;;;;;;16.50;2.30;;;;;;;10.11;75.03;99281.03;12974912;22;20027;-66
2023/03/13 04:15:51;;;;;;;16.33;1.95;;;;;;;10.09;75.36;99272.34;12946870;22;20542;-66
2023/03/13 04:21:04;;;;;;;21.42;2.00;;;;;;;10.12;75.46;99269.28;12974041;22;20456;-66
2023/03/13 04:26:05;;;;;;;13.60;2.00;;;;;;;10.12;75.47;99245.94;12975556;22;20032;-66
2023/03/13 04:31:07;;;;;;;27.65;11.45;;;;;;;10.16;75.64;99240.19;12946948;22;20445;-66
2023/03/13 04:36:08;;;;;;;11.68;2.50;;;;;;;10.13;75.75;99241.41;12974075;22;20026;-65
2023/03/13 04:41:10;;;;;;;13.85;2.90;;;;;;;10.22;76.10;99232.13;12947729;22;20024;-65
2023/03/13 04:46:11;;;;;;;8.68;0.93;;;;;;;10.22;75.96;99224.06;12974209;22;20024;-66
2023/03/13 04:51:13;;;;;;;10.82;1.42;;;;;;;10.20;76.43;99231.50;12973920;22;20120;-65
2023/03/13 04:56:22;;;;;;;5.00;1.00;;;;;;;10.23;76.63;99198.03;12975431;22;20028;-65
2023/03/13 05:01:42;;;;;;;;;;;;;;;10.21;76.71;99197.41;12974397;22;20062;-64
2023/03/13 05:06:44;;;;;;;16.73;1.45;;;;;;;10.34;76.53;99202.84;12973278;22;19926;-65
2023/03/13 05:11:45;;;;;;;12.95;1.65;;;;;;;10.44;76.48;99199.78;12946210;22;20023;-64
2023/03/13 05:16:46;;;;;;;6.50;1.00;;;;;;;10.52;76.66;99183.47;12971963;22;20027;-67
2023/03/13 05:21:48;;;;;;;11.02;1.60;;;;;;;10.61;76.86;99174.19;12973526;22;20023;-68
2023/03/13 05:26:49;;;;;;;8.05;1.15;;;;;;;10.62;76.96;99158.88;12973748;22;20028;-65
2023/03/13 05:31:51;;;;;;;11.43;1.40;;;;;;;10.71;77.00;99149.59;12972742;22;20034;-66
2023/03/13 05:36:54;;;;;;;7.15;1.20;;;;;;;10.81;77.40;99130.38;12975869;22;20105;-65
2023/03/13 05:41:56;;;;;;;13.38;1.75;;;;;;;10.92;77.12;99143.19;12971581;22;20020;-65
2023/03/13 05:46:57;;;;;;;7.75;1.42;;;;;;;11.06;77.12;99173.59;12948418;22;20510;-66
2023/03/13 05:51:59;;;;;;;9.07;1.20;;;;;;;11.25;77.24;99186.16;12945484;22;20026;-68
2023/03/13 05:57:00;;;;;;;3.38;1.23;;;;;;;11.32;77.14;99165.47;12973162;22;20468;-68
2023/03/13 06:02:02;;;;;;;16.17;2.03;;;;;;;11.40;77.21;99142.88;12948244;22;20020;-68
2023/03/13 06:07:04;;;;;;;8.15;1.13;;;;;;;11.40;77.71;99123.22;12977584;22;20024;-68
2023/03/13 06:12:07;;;;;;;5.22;1.65;;;;;;;11.43;78.30;99106.66;12986452;22;20028;-69
2023/03/13 06:17:09;;;;;;;5.78;1.60;;;;;;;11.54;77.76;99108.69;12926534;22;20107;-67
2023/03/13 06:22:10;;;;;;;4.53;1.13;;;;;;;11.59;78.21;99078.44;12922334;22;20019;-67
2023/03/13 06:27:13;;;;;;;4.03;0.98;;;;;;;11.66;78.07;99085.44;12958732;22;20030;-68
2023/03/13 06:32:15;;;;;;;4.35;1.10;;;;;;;11.68;78.25;99094.13;12960884;22;20026;-67
2023/03/13 06:37:16;;;;;;;6.45;1.27;;;;;;;11.73;78.34;99092.66;12952058;22;20019;-68
2023/03/13 06:42:18;;;;;;;2.55;1.00;;;;;;;11.76;78.85;99111.91;12908879;22;20104;-67
2023/03/13 06:47:20;;;;;;;4.15;1.13;;;;;;;11.82;78.75;99121.00;12954500;22;20024;-65
2023/03/13 06:52:21;;;;;;;6.32;2.25;;;;;;;11.89;78.34;99132.59;12971094;22;20114;-66
2023/03/13 06:57:37;;;;;;;3.42;1.30;;;;;;;12.02;78.57;99110.97;12947069;22;20020;-70
2023/03/13 07:02:39;;;;;;;2.05;0.90;;;;;;;12.14;78.00;99104.88;12946289;22;20460;-67
2023/03/13 07:07:41;;;;;;;3.15;0.88;;;;;;;12.21;78.07;99132.63;12954589;22;20034;-65
2023/03/13 07:12:43;;;;;;;6.45;1.25;;;;;;;12.34;77.96;99126.31;12972110;22;20044;-65
2023/03/13 07:17:44;;;;;;;6.00;1.08;;;;;;;12.46;77.44;99133.50;12975112;22;20033;-64
2023/03/13 07:22:50;;;;;;;3.33;1.20;;;;;;;12.60;77.61;99127.97;12973055;22;20401;-66
2023/03/13 07:27:52;;;;;;;1.70;0.80;;;;;;;12.70;77.29;99136.44;12977023;22;20491;-65
2023/03/13 07:32:53;;;;;;;4.90;1.17;;;;;;;12.80;77.04;99133.22;12953275;22;20074;-65
2023/03/13 07:37:55;;;;;;;2.55;1.30;;;;;;;12.93;77.07;99126.88;12983998;22;20047;-65
2023/03/13 07:42:56;;;;;;;2.78;0.90;;;;;;;13.02;76.55;99120.16;12948344;22;20487;-64
2023/03/13 07:47:57;;;;;;;5.07;0.70;;;;;;;13.07;76.58;99106.81;12953219;22;20062;-65
2023/03/13 07:52:59;;;;;;;1.52;0.93;;;;;;;13.17;76.63;99117.09;12973425;22;20015;-65
2023/03/13 07:58:00;;;;;;;2.60;0.85;;;;;;;13.19;76.65;99113.16;12974067;22;20027;-65
2023/03/13 08:03:03;;;;;;;5.05;0.90;;;;;;;13.26;76.84;99113.88;12972381;22;20053;-64
2023/03/13 08:08:05;;;;;;;2.85;1.00;;;;;;;13.37;76.61;99112.34;12973579;22;20031;-66
2023/03/13 08:13:06;;;;;;;1.45;0.90;;;;;;;13.45;76.44;99114.75;12972263;22;20356;-66
2023/03/13 08:18:08;;;;;;;2.80;0.70;;;;;;;13.57;76.33;99122.09;12971272;22;20101;-66
2023/03/13 08:23:09;;;;;;;1.70;0.80;;;;;;;13.66;76.20;99118.88;12979965;22;20043;-65
2023/03/13 08:28:11;;;;;;;1.80;0.60;;;;;;;13.73;76.43;99109.88;13001831;22;20032;-66
2023/03/13 08:33:12;;;;;;;5.63;0.88;;;;;;;13.85;76.11;99103.44;13008884;22;20027;-65
2023/03/13 08:38:14;;;;;;;1.80;1.13;;;;;;;13.98;75.95;99099.75;12976672;22;20485;-67
2023/03/13 08:43:15;;;;;;;1.30;0.80;;;;;;;14.12;75.76;99097.69;12998044;22;20039;-67
2023/03/13 08:48:16;;;;;;;1.60;1.00;;;;;;;14.33;75.56;99104.44;12946630;22;20028;-65
2023/03/13 08:53:18;;;;;;;1.50;0.90;;;;;;;14.48;75.24;99104.00;12968136;22;20019;-66
2023/03/13 08:58:19;;;;;;;2.53;1.00;;;;;;;14.58;75.31;99117.00;12973809;22;20035;-65
2023/03/13 09:03:21;;;;;;;2.80;1.00;;;;;;;14.64;75.18;99116.88;12973162;22;20086;-65
2023/03/13 09:08:22;;;;;;;2.90;1.15;;;;;;;14.71;74.79;99113.22;12954078;22;20047;-62
2023/03/13 09:13:26;;;;;;;3.05;1.10;;;;;;;14.80;74.56;99101.03;12971553;22;20031;-63
2023/03/13 09:18:28;;;;;;;1.52;0.90;;;;;;;14.96;74.34;99094.91;12971025;22;20019;-63
2023/03/13 09:23:29;;;;;;;2.42;1.25;;;;;;;15.11;74.04;99094.44;12983147;22;20024;-62
2023/03/13 09:28:32;;;;;;;3.33;1.02;;;;;;;15.10;73.89;99091.97;12973218;22;20011;-63
2023/03/13 09:33:33;;;;;;;2.75;1.20;;;;;;;15.17;73.63;99090.78;12971856;22;20026;-63
2023/03/13 09:38:35;;;;;;;2.90;1.27;;;;;;;15.18;73.25;99089.69;12971758;22;20478;-64
2023/03/13 09:44:07;;;;;;;1.77;1.10;;;;;;;15.27;72.76;99063.09;12972133;22;20015;-63
2023/03/13 09:49:33;;;;;;;1.58;1.20;;;;;;;15.35;72.45;99040.25;12971045;22;20024;-64
2023/03/13 09:55:02;;;;;;;4.35;1.52;;;;;;;15.54;72.43;99041.72;12971091;22;20031;-64
2023/03/13 10:00:15;;;;;;;2.00;0.80;;;;;;;15.69;72.01;99034.94;12970743;22;20032;-64
2023/03/13 10:05:21;;;;;;;3.13;1.10;;;;;;;15.78;71.62;99045.19;12983139;22;20085;-65
2023/03/13 10:10:42;;;;;;;2.40;0.80;;;;;;;15.84;71.36;99059.66;12972031;22;20027;-65
2023/03/13 10:15:57;;;;;;;2.92;0.80;;;;;;;15.83;71.21;99053.41;12972799;22;20091;-66
2023/03/13 10:21:10;;;;;;;2.33;1.08;;;;;;;15.88;70.69;99049.97;12971859;22;20027;-64
2023/03/13 10:26:20;;;;;;;2.42;1.17;;;;;;;16.22;70.02;99036.47;12974248;22;20044;-64
2023/03/13 10:31:31;;;;;;;2.15;1.52;;;;;;;16.48;69.63;99035.00;12972079;22;20330;-63
2023/03/13 10:36:45;;;;;;;5.50;1.60;;;;;;;16.60;69.23;99045.75;12979831;22;20078;-66
2023/03/13 10:41:55;;;;;;;1.77;1.10;;;;;;;16.78;69.20;99028.38;12975062;22;20065;-66
2023/03/13 10:47:01;;;;;;;3.15;1.15;;;;;;;16.78;68.95;99045.47;12978968;22;20023;-66
2023/03/13 10:52:03;;;;;;;5.47;1.48;;;;;;;16.70;68.68;99045.91;12976744;22;20495;-73
2023/03/13 10:57:17;;;;;;;2.45;1.20;;;;;;;16.81;68.08;99034.16;12957013;22;20719;-71
2023/03/13 11:02:38;;;;;;;2.55;0.88;;;;;;;16.92;67.35;99023.44;12985254;22;20392;-75
2023/03/13 11:07:39;;;;;;;4.35;1.00;;;;;;;16.91;66.90;99021.81;12974656;22;20020;-73
2023/03/13 11:12:46;;;;;;;2.78;0.80;;;;;;;16.91;66.81;99016.41;12933034;22;20139;-74
2023/03/13 11:18:05;;;;;;;1.98;1.00;;;;;;;16.91;66.92;99022.63;12977614;22;20020;-73
2023/03/13 11:23:27;;;;;;;3.08;1.13;;;;;;;16.58;67.08;99028.91;12974313;22;20031;-74
2023/03/13 11:28:42;;;;;;;1.60;1.00;;;;;;;16.63;67.51;99010.00;12952521;22;20537;-73
2023/03/13 11:33:58;;;;;;;5.97;2.13;;;;;;;16.80;67.24;99008.06;12953939;22;20356;-73
2023/03/13 11:39:16;;;;;;;5.30;1.77;;;;;;;16.88;67.17;99004.13;12974025;22;20023;-73
2023/03/13 11:44:17;;;;;;;;;;;;;;;16.80;68.04;98996.38;12975627;22;20084;-74
2023/03/13 11:49:55;;;;;;;2.30;1.27;;;;;;;16.89;67.35;98980.53;12921713;22;19915;-74
2023/03/13 11:55:20;;;;;;;2.83;0.85;;;;;;;16.82;66.67;98961.69;12976411;22;20498;-73
2023/03/13 12:00:32;;;;;;;3.30;0.70;;;;;;;16.98;65.96;98955.41;12967812;22;20020;-73
2023/03/13 12:05:52;;;;;;;2.88;0.65;;;;;;;17.10;65.75;98940.88;12974310;22;20028;-73
2023/03/13 12:11:08;;;;;;;3.20;0.60;;;;;;;17.08;64.97;98915.88;12946845;22;20828;-73
2023/03/13 12:16:15;;;;;;;1.63;0.88;;;;;;;17.01;64.69;98930.47;12973802;22;20085;-74
2023/03/13 12:21:36;;;;;;;1.70;1.00;;;;;;;16.88;64.54;98925.41;12970466;22;20116;-72
2023/03/13 12:26:45;;;;;;;6.18;0.93;;;;;;;16.92;64.27;98909.44;12974094;22;20027;-73
2023/03/13 12:31:58;;;;;;;2.08;0.75;;;;;;;16.88;64.50;98914.56;12973575;22;20085;-73
2023/03/13 12:37:15;;;;;;;2.88;0.88;;;;;;;16.91;64.30;98899.69;12967805;22;20296;-74
2023/03/13 12:42:38;;;;;;;3.17;1.13;;;;;;;16.80;64.62;98880.50;12979559;22;20022;-76
2023/03/13 12:48:12;;;;;;;2.60;1.25;;;;;;;16.73;65.03;98882.59;12959111;22;20023;-76
2023/03/13 12:53:50;;;;;;;3.10;0.80;;;;;;;16.77;64.99;98878.31;12963881;22;20027;-76
2023/03/13 12:59:10;;;;;;;3.10;0.70;;;;;;;16.74;65.35;98857.09;12957695;22;20035;-77
2023/03/13 13:04:16;;;;;;;8.48;2.53;;;;;;;16.51;66.29;98841.91;12952898;22;20027;-75
2023/03/13 13:09:24;;;;;;;6.73;1.10;;;;;;;16.55;66.50;98825.97;12991831;22;20058;-73
2023/03/13 13:14:25;;;;;;;5.43;1.13;;;;;;;16.52;66.49;98831.88;12953069;22;20045;-74
2023/03/13 13:19:27;;;;;;;4.20;0.90;;;;;;;16.63;66.53;98804.63;12949880;22;20024;-74
2023/03/13 13:24:49;;;;;;;2.80;1.15;;;;;;;17.01;65.83;98802.06;12927517;22;20024;-75
2023/03/13 13:29:53;;;;;;;1.25;0.75;;;;;;;17.07;65.85;98784.75;12920096;22;20027;-75
2023/03/13 13:35:15;;;;;;;4.03;1.50;;;;;;;17.14;65.80;98765.50;12945049;22;20081;-75
2023/03/13 13:40:25;;;;;;;2.95;0.90;;;;;;;17.31;65.38;98751.81;12947916;22;20094;-72
2023/03/13 13:45:34;;;;;;;1.98;0.85;;;;;;;17.53;64.93;98725.34;12944923;22;20028;-73
2023/03/13 13:50:36;;;;;;;4.07;1.17;;;;;;;17.60;64.56;98708.81;12944217;22;20035;-71
2023/03/13 13:55:37;;;;;;;4.13;1.20;;;;;;;17.88;64.32;98698.69;12916224;22;20024;-70
2023/03/13 14:00:45;;;;;;;2.55;0.80;;;;;;;18.15;63.48;98663.16;12949172;22;20023;-72
2023/03/13 14:05:52;;;;;;;1.75;0.80;;;;;;;18.21;63.32;98649.31;12969983;22;20039;-73
2023/03/13 14:11:09;;;;;;;4.10;1.03;;;;;;;18.26;63.05;98626.72;12972670;22;20028;-73
2023/03/13 14:16:25;;;;;;;6.28;1.75;;;;;;;18.43;62.51;98632.75;12943857;22;20058;-73
2023/03/13 14:21:27;;;;;;;2.90;0.90;;;;;;;18.58;62.16;98631.13;12980962;22;20034;-75
2023/03/13 14:26:29;;;;;;;2.92;1.17;;;;;;;18.49;62.42;98617.25;12950769;22;20043;-73
2023/03/13 14:31:34;;;;;;;4.93;0.80;;;;;;;18.45;62.36;98604.47;13010689;22;20015;-72
2023/03/13 14:36:50;;;;;;;3.88;1.13;;;;;;;18.60;62.01;98571.78;13024012;22;20020;-72
2023/03/13 14:41:52;;;;;;;2.70;1.00;;;;;;;18.56;61.83;98555.22;12973892;22;20031;-72
2023/03/13 14:46:56;;;;;;;8.88;1.20;;;;;;;18.51;61.74;98541.59;13030627;22;20066;-72
2023/03/13 14:52:02;;;;;;;3.20;1.08;;;;;;;18.47;61.70;98529.63;13012560;22;20023;-71
2023/03/13 14:57:16;;;;;;;2.65;0.95;;;;;;;18.33;62.07;98525.84;12993622;22;20034;-70
2023/03/13 15:02:25;;;;;;;3.35;1.48;;;;;;;17.28;65.38;98526.91;13005171;22;20042;-70
2023/03/13 15:07:51;;;;;;;3.17;1.60;;;;;;;16.78;67.63;98524.44;13008507;22;20042;-70
2023/03/13 15:12:52;;;;;;;1.88;0.80;;;;;;;16.43;68.90;98606.41;13016703;22;20050;-69
2023/03/13 15:17:54;;;;;;;3.63;0.68;;;;;;;15.03;72.89;98526.50;13001263;22;20023;-69
2023/03/13 15:22:57;;;;;;;0.00;0.00;;;;;;;14.25;75.35;98504.75;12986346;22;20016;-64
2023/03/13 15:27:58;;;;;;;0.00;0.00;;;;;;;14.02;76.31;98503.00;12979462;22;20093;-62
2023/03/13 15:32:59;;;;;;;0.00;0.00;;;;;;;13.72;77.35;98531.09;12975363;22;20019;-64
2023/03/13 15:38:01;;;;;;;0.00;0.00;;;;;;;13.65;77.71;98515.06;12974338;22;20098;-62
2023/03/13 15:43:03;;;;;;;0.00;0.00;;;;;;;13.58;77.89;98495.47;12975243;22;20016;-65
2023/03/13 15:48:14;;;;;;;0.00;0.00;;;;;;;13.56;77.88;98484.09;12974800;22;20024;-65
2023/03/13 15:53:20;;;;;;;0.00;0.00;;;;;;;13.54;78.46;98458.44;12985727;22;20020;-62
2023/03/13 15:58:21;;;;;;;0.00;0.00;;;;;;;13.55;78.79;98487.06;12973458;22;20090;-64
2023/03/13 16:03:25;;;;;;;0.00;0.00;;;;;;;13.52;79.13;98482.94;12981455;22;20050;-65
2023/03/13 16:08:27;;;;;;;0.00;0.00;;;;;;;13.58;78.88;98516.28;12988745;22;20076;-67
2023/03/13 16:13:37;;;;;;;0.00;0.00;;;;;;;13.59;79.35;98458.53;12987787;22;20661;-63
2023/03/13 16:18:39;;;;;;;0.00;0.00;;;;;;;13.62;79.36;98493.94;12943143;22;20026;-64
2023/03/13 16:23:41;;;;;;;0.00;0.00;;;;;;;13.66;78.80;98475.38;12997690;22;20043;-63
2023/03/13 16:28:43;;;;;;;0.00;0.00;;;;;;;13.65;79.15;98439.47;12944804;22;20031;-62
2023/03/13 16:33:45;;;;;;;0.00;0.00;;;;;;;13.67;79.03;98429.25;12954029;22;20027;-62
2023/03/13 16:38:47;;;;;;;0.00;0.00;;;;;;;13.66;79.49;98416.81;12946149;22;20525;-63
2023/03/13 16:43:49;;;;;;;0.00;0.00;;;;;;;13.72;79.54;98428.50;12944167;22;20027;-63
2023/03/13 16:48:52;;;;;;;0.00;0.00;;;;;;;13.68;79.94;98428.19;12945436;22;20122;-63
2023/03/13 16:53:55;;;;;;;0.00;0.00;;;;;;;13.64;79.74;98455.91;12920867;22;20440;-63
2023/03/13 16:58:57;;;;;;;0.00;0.00;;;;;;;13.61;79.86;98469.91;12984554;22;20035;-61
2023/03/13 17:03:58;;;;;;;0.00;0.00;;;;;;;13.64;79.93;98485.59;12973044;22;20027;-64
2023/03/13 17:09:01;;;;;;;0.00;0.00;;;;;;;13.68;79.52;98475.94;12979719;22;20042;-62
2023/03/13 17:14:05;;;;;;;0.00;0.00;;;;;;;13.70;79.71;98465.72;12971466;22;20119;-62
2023/03/13 17:19:12;;;;;;;0.00;0.00;;;;;;;13.65;79.68;98465.66;12913674;22;20027;-61
2023/03/13 17:24:13;;;;;;;0.00;0.00;;;;;;;13.65;79.62;98461.06;12941232;22;20023;-61
2023/03/13 17:29:17;;;;;;;0.00;0.00;;;;;;;13.62;79.51;98450.75;12970754;22;20027;-61
2023/03/13 17:34:19;;;;;;;0.00;0.00;;;;;;;13.60;79.67;98460.97;12967376;22;20039;-61
2023/03/13 17:39:23;;;;;;;0.00;0.00;;;;;;;13.66;79.20;98446.53;12969714;22;20011;-61
2023/03/13 17:44:24;;;;;;;0.05;0.05;;;;;;;13.67;79.22;98431.13;12946958;22;20028;-61
2023/03/13 17:49:28;;;;;;;0.00;0.00;;;;;;;13.71;79.14;98426.06;13009983;22;20027;-62
2023/03/13 17:54:29;;;;;;;0.00;0.00;;;;;;;13.74;78.80;98417.47;13020588;22;20020;-64
2023/03/13 17:59:31;;;;;;;0.00;0.00;;;;;;;13.74;78.82;98414.75;12945963;22;20490;-61
2023/03/13 18:04:32;;;;;;;0.00;0.00;;;;;;;13.67;79.08;98429.25;12968261;22;20252;-63
2023/03/13 18:09:33;;;;;;;0.05;0.05;;;;;;;13.68;79.12;98448.94;13011084;22;20023;-62
2023/03/13 18:14:36;;;;;;;0.00;0.00;;;;;;;13.68;79.25;98433.59;12966540;22;20031;-62
2023/03/13 18:19:37;;;;;;;0.00;0.00;;;;;;;13.76;78.85;98420.72;12979566;22;20032;-62
2023/03/13 18:24:39;;;;;;;0.00;0.00;;;;;;;13.73;78.79;98416.66;12948143;22;20078;-62
2023/03/13 18:29:41;;;;;;;0.00;0.00;;;;;;;13.59;79.68;98418.03;12971774;22;20024;-65
2023/03/13 18:34:43;;;;;;;0.00;0.00;;;;;;;13.43;80.13;98408.84;12985577;22;20015;-66
2023/03/13 18:39:45;;;;;;;0.00;0.00;;;;;;;13.46;79.98;98384.06;13032423;22;20012;-66
2023/03/13 18:44:46;;;;;;;0.00;0.00;;;;;;;13.43;80.02;98404.25;13032241;22;20051;-65
2023/03/13 18:55:33;;;;;;;0.00;0.00;;;;;;;13.46;79.99;98401.06;12937864;22;20027;-65
2023/03/13 19:00:35;;;;;;;0.00;0.00;;;;;;;13.48;80.08;98401.63;12956070;22;20020;-64
2023/03/13 19:05:36;;;;;;;0.00;0.00;;;;;;;13.51;80.23;98440.00;12965134;22;20035;-64
2023/03/13 19:10:39;;;;;;;0.00;0.00;;;;;;;13.57;80.26;98436.34;12966106;22;20087;-68
2023/03/13 19:15:40;;;;;;;0.00;0.00;;;;;;;13.60;79.90;98381.84;12960439;23;20030;-65
2023/03/13 19:20:41;;;;;;;0.00;0.00;;;;;;;13.62;80.21;98375.16;12951895;22;20019;-64
2023/03/13 19:25:43;;;;;;;0.00;0.00;;;;;;;13.66;80.15;98405.19;12965026;22;20385;-64
2023/03/13 19:30:46;;;;;;;0.00;0.00;;;;;;;13.68;80.31;98420.09;12928680;23;20043;-70
2023/03/13 19:35:47;;;;;;;0.00;0.00;;;;;;;13.77;80.29;98376.47;12929210;23;20051;-71
2023/03/13 19:40:49;;;;;;;0.00;0.00;;;;;;;13.75;80.33;98306.50;12956131;22;20004;-65
2023/03/13 19:45:50;;;;;;;0.00;0.00;;;;;;;13.67;80.41;98364.44;12967864;22;20394;-63
2023/03/13 19:50:52;;;;;;;0.00;0.00;;;;;;;13.66;80.44;98333.13;12959202;22;20020;-69
2023/03/13 19:55:53;;;;;;;0.00;0.00;;;;;;;13.60;80.54;98296.28;12958888;22;20020;-66
2023/03/13 20:00:54;;;;;;;0.00;0.00;;;;;;;13.59;80.68;98274.94;12956953;22;20313;-64
2023/03/13 20:11:23;;;;;;;0.00;0.00;;;;;;;13.34;80.68;98294.25;12923929;22;20054;-65
2023/03/13 20:16:26;;;;;;;0.00;0.00;;;;;;;13.26;80.71;98263.88;13028873;22;20031;-64
2023/03/13 20:21:37;;;;;;;0.00;0.00;;;;;;;13.19;80.45;98306.41;13006810;22;20007;-64
2023/03/13 20:26:39;;;;;;;0.00;0.00;;;;;;;13.14;80.30;98295.50;13031084;22;20003;-66
2023/03/13 20:31:40;;;;;;;0.00;0.00;;;;;;;13.10;80.37;98311.34;13033609;22;20019;-66
2023/03/13 20:36:41;;;;;;;0.00;0.00;;;;;;;13.03;80.29;98297.22;13033015;22;20067;-65
2023/03/13 20:41:43;;;;;;;0.10;0.10;;;;;;;12.96;79.89;98279.56;13032179;22;20103;-67
2023/03/13 20:46:44;;;;;;;0.00;0.00;;;;;;;12.92;80.12;98289.19;13031313;22;20057;-65
2023/03/13 20:51:46;;;;;;;0.00;0.00;;;;;;;12.88;79.72;98283.47;13032612;22;20043;-66
2023/03/13 20:56:47;;;;;;;0.00;0.00;;;;;;;12.84;80.03;98298.50;12980167;22;20114;-70
2023/03/13 21:01:49;;;;;;;0.00;0.00;;;;;;;12.76;79.90;98280.00;12972439;22;20023;-70
2023/03/13 21:06:51;;;;;;;0.00;0.00;;;;;;;12.72;79.83;98282.38;12971606;22;20034;-72
2023/03/13 21:11:52;;;;;;;0.00;0.00;;;;;;;12.72;79.42;98287.75;12972717;22;20023;-71
2023/03/13 21:16:54;;;;;;;0.00;0.00;;;;;;;12.65;78.80;98309.44;12987125;22;20027;-69
2023/03/13 21:21:57;;;;;;;0.00;0.00;;;;;;;12.63;79.19;98329.63;12974803;22;20024;-71
2023/03/13 21:26:58;;;;;;;0.00;0.00;;;;;;;12.54;78.91;98322.97;12921803;22;20035;-70
2023/03/13 21:32:00;;;;;;;0.00;0.00;;;;;;;12.50;79.03;98311.88;12988046;22;20027;-69
2023/03/13 21:37:01;;;;;;;0.00;0.00;;;;;;;12.50;78.93;98303.78;12923774;22;20023;-72
2023/03/13 21:42:03;;;;;;;0.00;0.00;;;;;;;12.39;79.08;98289.25;12980972;22;20058;-69
2023/03/13 21:47:05;;;;;;;0.00;0.00;;;;;;;12.32;79.10;98279.69;12988108;22;20020;-68
2023/03/13 21:52:07;;;;;;;0.00;0.00;;;;;;;12.27;79.01;98293.88;12897495;22;20161;-68
2023/03/13 21:57:08;;;;;;;0.00;0.00;;;;;;;12.19;79.33;98322.00;12953738;22;20057;-69
2023/03/13 22:02:11;;;;;;;0.00;0.00;;;;;;;12.11;79.74;98322.34;12921921;22;20032;-67
2023/03/13 22:07:13;;;;;;;0.00;0.00;;;;;;;12.07;79.72;98340.84;12975416;22;20023;-66
2023/03/13 22:12:16;;;;;;;0.00;0.00;;;;;;;12.05;79.54;98334.88;12944622;22;20317;-70
2023/03/13 22:17:19;;;;;;;0.00;0.00;;;;;;;12.05;79.86;98321.41;12984634;22;20036;-70
2023/03/13 22:22:20;;;;;;;0.00;0.00;;;;;;;12.03;79.69;98323.53;12946419;22;20472;-70
2023/03/13 22:27:23;;;;;;;0.00;0.00;;;;;;;12.01;79.25;98289.81;12922067;22;20472;-71
2023/03/13 22:32:24;;;;;;;0.00;0.00;;;;;;;12.01;79.86;98301.41;12985330;22;20023;-70
2023/03/13 22:37:26;;;;;;;0.10;0.10;;;;;;;11.97;79.63;98305.63;12948484;22;20031;-69
2023/03/13 22:42:28;;;;;;;0.00;0.00;;;;;;;11.97;79.65;98343.31;12956947;22;20027;-69
2023/03/13 22:47:31;;;;;;;0.00;0.00;;;;;;;11.93;79.47;98320.63;12961464;22;20490;-70
2023/03/13 22:52:32;;;;;;;0.00;0.00;;;;;;;11.97;79.29;98315.59;12951547;22;20516;-69
2023/03/13 22:57:34;;;;;;;0.00;0.00;;;;;;;11.96;79.45;98309.38;12951298;22;20023;-69
2023/03/13 23:02:35;;;;;;;0.00;0.00;;;;;;;11.95;79.38;98301.50;12951986;22;20027;-68
2023/03/13 23:07:39;;;;;;;0.00;0.00;;;;;;;12.00;79.63;98267.44;12924873;22;20030;-69
2023/03/13 23:12:41;;;;;;;0.00;0.00;;;;;;;11.99;79.18;98259.63;12977582;22;20020;-70
2023/03/13 23:17:42;;;;;;;0.00;0.00;;;;;;;12.00;79.54;98250.47;12924348;22;20364;-70
2023/03/13 23:22:46;;;;;;;0.00;0.00;;;;;;;11.98;79.36;98263.34;12950394;22;20037;-71
2023/03/13 23:27:48;;;;;;;0.00;0.00;;;;;;;11.99;79.48;98263.13;12957525;22;20567;-65
2023/03/13 23:32:49;;;;;;;0.00;0.00;;;;;;;12.05;79.34;98289.09;12978332;22;20073;-63
2023/03/13 23:37:53;;;;;;;0.00;0.00;;;;;;;12.07;79.10;98302.34;12976903;22;20103;-64
2023/03/13 23:42:55;;;;;;;0.00;0.00;;;;;;;12.10;79.20;98321.53;12980705;22;20115;-64
2023/03/13 23:47:56;;;;;;;0.45;0.00;;;;;;;12.14;79.08;98366.84;12976240;22;20085;-63